Time;durP1;ratioP1;P1;durP2;ratioP2;P2;SDS_P1;SDS_P2;PMS_P1;PMS_P2;Temp;Humidity;BMP_temperature;BMP_pressure;BME280_temperature;BME280_humidity;BME280_pressure;Samples;Min_cycle;Max_cycle;Signal;HPM_P1;HPM_P2
2022/06/30 00:01:37;;;;;;;7.30;5.70;;;19.00;32.60;;;;;;5054350;28;20202;-70
2022/06/30 00:04:03;;;;;;;6.23;5.57;;;19.00;32.50;;;;;;5054131;28;20942;-70
2022/06/30 00:06:29;;;;;;;5.50;5.00;;;19.00;32.00;;;;;;5054330;28;20179;-69
2022/06/30 00:08:55;;;;;;;6.70;5.43;;;19.10;32.00;;;;;;5053732;28;20455;-70
2022/06/30 00:11:20;;;;;;;6.57;5.97;;;19.00;32.00;;;;;;5052648;28;20230;-70
2022/06/30 00:13:46;;;;;;;7.23;5.73;;;18.90;32.20;;;;;;5053713;28;20202;-70
2022/06/30 00:16:12;;;;;;;7.37;5.77;;;18.80;32.80;;;;;;5052618;28;20182;-70
2022/06/30 00:18:38;;;;;;;7.30;6.50;;;18.80;33.10;;;;;;5053457;28;20827;-70
2022/06/30 00:21:04;;;;;;;7.33;6.00;;;18.70;33.40;;;;;;5053754;28;20744;-70
2022/06/30 00:23:31;;;;;;;9.33;5.50;;;18.70;33.40;;;;;;5052606;28;20429;-70
2022/06/30 00:25:56;;;;;;;7.43;6.73;;;18.70;33.40;;;;;;5053835;28;20417;-69
2022/06/30 00:28:22;;;;;;;7.10;6.40;;;18.60;33.60;;;;;;5053160;28;20818;-70
2022/06/30 00:30:49;;;;;;;5.30;4.67;;;18.60;33.40;;;;;;5053685;28;20255;-70
2022/06/30 00:33:15;;;;;;;7.23;6.57;;;18.60;33.30;;;;;;5053138;28;20202;-70
2022/06/30 00:35:41;;;;;;;20.13;5.50;;;18.60;33.30;;;;;;5053524;28;20401;-70
2022/06/30 00:38:07;;;;;;;6.17;5.57;;;18.50;33.30;;;;;;5053197;28;20930;-70
2022/06/30 00:40:40;;;;;;;5.93;5.33;;;18.60;33.60;;;;;;5053197;28;20234;-70
2022/06/30 00:43:05;;;;;;;6.47;5.27;;;18.50;34.10;;;;;;5053633;28;20178;-70
2022/06/30 00:45:32;;;;;;;5.17;4.67;;;18.40;34.40;;;;;;5052211;28;20642;-70
2022/06/30 00:47:59;;;;;;;7.03;6.33;;;18.40;34.60;;;;;;5053016;28;20549;-70
2022/06/30 00:50:25;;;;;;;7.83;6.07;;;18.50;34.10;;;;;;5053151;28;20928;-70
2022/06/30 00:52:52;;;;;;;7.40;6.70;;;18.60;33.30;;;;;;5051864;28;20421;-71
2022/06/30 00:55:19;;;;;;;6.50;5.80;;;18.50;33.90;;;;;;5053006;28;20482;-70
2022/06/30 00:57:47;;;;;;;8.30;5.90;;;18.50;33.90;;;;;;5053319;28;20409;-70
2022/06/30 01:00:14;;;;;;;7.10;6.40;;;18.40;34.30;;;;;;5051498;28;20418;-70
2022/06/30 01:02:40;;;;;;;5.63;5.13;;;18.40;33.90;;;;;;5053067;28;20428;-70
2022/06/30 01:05:07;;;;;;;6.77;6.10;;;18.40;33.90;;;;;;5053058;28;20412;-70
2022/06/30 01:07:33;;;;;;;8.23;5.17;;;18.40;34.50;;;;;;5052902;28;20416;-70
2022/06/30 01:12:47;;;;;;;6.50;5.90;;;18.20;34.70;;;;;;5052595;28;20532;-70
2022/06/30 01:15:18;;;;;;;6.03;5.53;;;18.20;35.10;;;;;;5053144;28;20409;-70
2022/06/30 01:17:45;;;;;;;7.47;6.77;;;18.30;34.30;;;;;;5052698;28;20409;-70
2022/06/30 01:20:11;;;;;;;6.40;5.80;;;18.30;34.80;;;;;;5052226;28;20460;-70
2022/06/30 01:22:37;;;;;;;6.70;6.10;;;18.30;34.30;;;;;;5051194;28;20417;-70
2022/06/30 01:25:04;;;;;;;5.40;4.90;;;18.30;34.70;;;;;;5052566;28;20435;-69
2022/06/30 01:27:30;;;;;;;8.13;5.90;;;18.20;34.60;;;;;;5052462;28;20428;-69
2022/06/30 01:29:57;;;;;;;7.30;6.60;;;18.20;35.10;;;;;;5052436;28;20413;-70
2022/06/30 01:32:24;;;;;;;5.73;5.23;;;18.20;35.00;;;;;;5052524;28;20571;-70
2022/06/30 01:34:49;;;;;;;5.37;4.87;;;18.20;35.00;;;;;;5051083;28;20476;-70
2022/06/30 01:37:15;;;;;;;6.67;5.17;;;18.10;35.60;;;;;;5051091;28;20920;-70
2022/06/30 01:39:41;;;;;;;6.80;5.57;;;18.10;35.30;;;;;;5050491;28;20232;-70
2022/06/30 01:42:07;;;;;;;6.50;5.90;;;18.20;35.50;;;;;;5050825;28;20202;-70
2022/06/30 01:44:32;;;;;;;7.70;6.03;;;18.10;35.50;;;;;;5051427;28;20213;-69
2022/06/30 01:46:58;;;;;;;6.33;5.73;;;18.00;35.50;;;;;;5052205;28;20574;-69
2022/06/30 01:49:24;;;;;;;6.60;5.97;;;18.00;36.00;;;;;;5051802;28;20174;-69
2022/06/30 01:51:49;;;;;;;6.83;6.17;;;18.00;36.30;;;;;;5050447;28;20245;-69
2022/06/30 01:54:15;;;;;;;7.87;5.90;;;18.00;36.30;;;;;;5051535;28;20473;-69
2022/06/30 01:56:40;;;;;;;7.10;6.40;;;18.00;36.20;;;;;;5049471;28;20182;-69
2022/06/30 01:59:06;;;;;;;8.90;5.80;;;18.00;35.70;;;;;;5052013;28;20171;-69
2022/06/30 02:01:35;;;;;;;6.20;5.60;;;18.00;35.60;;;;;;5050412;28;20237;-69
2022/06/30 02:06:46;;;;;;;10.57;6.50;;;17.90;35.40;;;;;;5051670;28;20439;-68
2022/06/30 02:09:11;;;;;;;9.43;6.37;;;17.90;36.20;;;;;;5050223;28;20417;-68
2022/06/30 02:11:37;;;;;;;7.07;5.73;;;17.80;36.50;;;;;;5052068;28;20198;-68
2022/06/30 02:14:03;;;;;;;6.43;5.83;;;17.90;35.80;;;;;;5050455;28;20207;-68
2022/06/30 02:16:29;;;;;;;7.77;6.43;;;17.90;35.30;;;;;;5050467;28;20421;-68
2022/06/30 02:18:54;;;;;;;6.33;5.73;;;17.80;35.50;;;;;;5050135;28;20256;-68
2022/06/30 02:21:20;;;;;;;8.80;7.20;;;17.70;36.50;;;;;;5051551;28;20207;-68
2022/06/30 02:23:45;;;;;;;6.53;5.90;;;17.60;36.80;;;;;;5050771;28;20201;-69
2022/06/30 02:26:11;;;;;;;8.03;7.23;;;17.60;36.60;;;;;;5051398;28;20209;-69
2022/06/30 02:28:37;;;;;;;7.60;7.00;;;17.50;37.90;;;;;;5051638;28;20213;-69
2022/06/30 02:31:04;;;;;;;7.83;6.47;;;17.50;38.10;;;;;;5050353;28;20210;-70
2022/06/30 02:33:30;;;;;;;7.77;5.60;;;17.50;38.20;;;;;;5050262;28;20221;-68
2022/06/30 02:35:55;;;;;;;6.87;6.17;;;17.50;37.60;;;;;;5051389;28;20429;-69
2022/06/30 02:38:21;;;;;;;6.30;5.70;;;17.50;37.60;;;;;;5051209;28;20179;-69
2022/06/30 02:40:47;;;;;;;7.27;6.60;;;17.50;37.70;;;;;;5051370;28;20264;-70
2022/06/30 02:43:12;;;;;;;9.77;7.43;;;17.50;38.40;;;;;;5051535;28;20178;-68
2022/06/30 02:45:38;;;;;;;9.17;7.07;;;17.50;37.60;;;;;;5050204;28;20193;-68
2022/06/30 02:48:04;;;;;;;7.63;6.83;;;17.50;37.60;;;;;;5051057;28;20651;-69
2022/06/30 02:50:29;;;;;;;7.03;5.40;;;17.40;38.50;;;;;;5051411;28;20618;-68
2022/06/30 02:52:55;;;;;;;8.03;6.20;;;17.40;37.50;;;;;;5050005;28;20460;-69
2022/06/30 02:55:21;;;;;;;8.10;6.27;;;17.40;37.80;;;;;;5053311;28;20171;-68
2022/06/30 02:57:47;;;;;;;7.03;6.40;;;17.40;38.10;;;;;;5055352;28;20183;-69
2022/06/30 03:00:13;;;;;;;6.00;5.40;;;17.30;37.40;;;;;;5053689;28;20278;-68
2022/06/30 03:02:40;;;;;;;7.17;6.50;;;17.30;38.30;;;;;;5055428;28;20423;-68
2022/06/30 03:05:07;;;;;;;9.03;6.90;;;17.30;38.40;;;;;;5054968;28;20435;-69
2022/06/30 03:07:33;;;;;;;7.70;6.90;;;17.20;38.60;;;;;;5055085;28;20420;-68
2022/06/30 03:09:59;;;;;;;8.93;7.40;;;17.30;38.80;;;;;;5054885;28;20417;-69
2022/06/30 03:12:24;;;;;;;6.90;6.30;;;17.30;38.50;;;;;;5055268;28;20270;-68
2022/06/30 03:14:50;;;;;;;6.60;5.97;;;17.30;38.20;;;;;;5055281;28;20456;-68
2022/06/30 03:17:16;;;;;;;7.30;5.43;;;17.30;38.40;;;;;;5055009;28;20552;-69
2022/06/30 03:19:41;;;;;;;8.43;6.73;;;17.20;38.70;;;;;;5054410;28;20186;-69
2022/06/30 03:22:07;;;;;;;7.83;7.10;;;17.20;39.50;;;;;;5053297;28;20293;-69
2022/06/30 03:24:32;;;;;;;7.23;6.57;;;17.20;39.40;;;;;;5055053;28;20182;-69
2022/06/30 03:27:00;;;;;;;7.63;6.73;;;17.20;39.50;;;;;;5054852;28;20179;-70
2022/06/30 03:29:26;;;;;;;7.40;6.63;;;17.20;39.00;;;;;;5053098;28;20212;-70
2022/06/30 03:31:51;;;;;;;7.50;6.80;;;17.20;38.40;;;;;;5054653;28;20444;-70
2022/06/30 03:34:17;;;;;;;6.60;4.43;;;17.20;38.30;;;;;;5054314;28;20199;-68
2022/06/30 03:36:43;;;;;;;7.63;6.83;;;17.10;38.40;;;;;;5054573;28;20206;-68
2022/06/30 03:39:08;;;;;;;6.63;6.00;;;17.10;39.10;;;;;;5054363;28;20190;-69
2022/06/30 03:41:34;;;;;;;9.23;7.70;;;17.10;38.60;;;;;;5054434;28;20201;-68
2022/06/30 03:44:00;;;;;;;6.73;6.03;;;17.10;38.40;;;;;;5053449;28;20569;-68
2022/06/30 03:46:25;;;;;;;9.77;6.07;;;17.10;38.40;;;;;;5053173;28;20324;-69
2022/06/30 03:48:51;;;;;;;5.60;5.10;;;17.00;38.60;;;;;;5054317;28;20194;-69
2022/06/30 03:51:17;;;;;;;6.70;5.70;;;17.10;38.30;;;;;;5054223;28;20199;-69
2022/06/30 03:53:42;;;;;;;8.37;7.57;;;17.10;38.30;;;;;;5054417;28;20285;-68
2022/06/30 03:56:08;;;;;;;10.53;6.43;;;17.10;38.00;;;;;;5054275;28;20657;-68
2022/06/30 03:58:34;;;;;;;7.60;6.90;;;17.10;38.10;;;;;;5052574;28;20186;-68
2022/06/30 04:01:00;;;;;;;6.63;6.03;;;17.10;38.50;;;;;;5077878;22;20230;-76
2022/06/30 04:03:25;;;;;;;7.83;7.13;;;17.10;38.00;;;;;;5052906;28;20273;-76
2022/06/30 04:05:51;;;;;;;7.83;7.03;;;17.10;37.90;;;;;;5053760;28;20190;-76
2022/06/30 04:08:16;;;;;;;7.40;6.70;;;17.20;37.80;;;;;;5053322;28;20185;-75
2022/06/30 04:10:42;;;;;;;6.13;5.50;;;17.20;37.30;;;;;;5052172;28;20637;-76
2022/06/30 04:13:08;;;;;;;7.50;6.80;;;17.10;37.60;;;;;;5034000;28;20210;-74
2022/06/30 04:15:34;;;;;;;9.03;6.73;;;17.10;38.60;;;;;;5032491;28;20495;-76
2022/06/30 04:17:59;;;;;;;8.93;7.10;;;17.00;39.00;;;;;;5033456;28;20229;-77
2022/06/30 04:20:25;;;;;;;7.90;7.20;;;17.00;39.90;;;;;;5033930;28;20646;-76
2022/06/30 04:22:52;;;;;;;8.10;7.30;;;17.10;39.10;;;;;;5033917;28;20191;-75
2022/06/30 04:25:19;;;;;;;7.30;6.60;;;17.20;38.40;;;;;;5033844;28;20580;-76
2022/06/30 04:27:49;;;;;;;7.83;5.93;;;17.30;37.90;;;;;;5033802;28;20402;-77
2022/06/30 04:32:37;;;;;;;6.10;5.50;;;17.30;37.40;;;;;;5031906;28;20509;-76
2022/06/30 04:33:02;;;;;;;5.77;5.20;;;17.20;38.90;;;;;;5033334;28;20931;-77
2022/06/30 04:35:28;;;;;;;7.33;6.60;;;17.30;38.00;;;;;;5033911;28;20429;-76
2022/06/30 04:37:57;;;;;;;6.00;5.50;;;17.40;37.50;;;;;;5033886;28;20774;-76
2022/06/30 04:43:07;;;;;;;7.17;6.47;;;17.60;37.70;;;;;;5033660;28;20433;-76
2022/06/30 04:45:33;;;;;;;7.70;7.00;;;17.20;38.40;;;;;;5033042;28;20872;-75
2022/06/30 04:47:58;;;;;;;8.10;6.50;;;17.10;40.50;;;;;;5033481;28;20236;-75
2022/06/30 04:50:24;;;;;;;7.93;6.90;;;17.30;39.80;;;;;;5027463;28;20176;-76
2022/06/30 04:52:49;;;;;;;6.63;6.03;;;17.50;39.20;;;;;;5056295;28;20195;-76
2022/06/30 04:55:15;;;;;;;8.83;8.03;;;17.80;37.90;;;;;;5033063;28;20185;-73
2022/06/30 04:57:40;;;;;;;6.80;5.20;;;18.70;36.30;;;;;;5033717;28;20179;-76
2022/06/30 05:00:07;;;;;;;7.97;6.63;;;20.00;32.60;;;;;;5032745;28;20195;-73
2022/06/30 05:02:33;;;;;;;7.90;6.50;;;21.60;26.60;;;;;;5033452;28;20222;-76
2022/06/30 05:04:58;;;;;;;7.80;7.20;;;23.20;23.60;;;;;;5032252;28;20517;-77
2022/06/30 05:07:24;;;;;;;11.07;10.30;;;24.70;19.90;;;;;;5033174;28;20239;-76
2022/06/30 05:09:49;;;;;;;13.00;12.20;;;26.00;17.00;;;;;;5032748;28;20225;-77
2022/06/30 05:12:15;;;;;;;13.70;12.90;;;27.10;13.90;;;;;;5032935;28;20199;-77
2022/06/30 05:14:41;;;;;;;14.03;13.23;;;28.00;12.90;;;;;;5032550;28;20207;-77
2022/06/30 05:17:06;;;;;;;14.60;13.90;;;28.30;10.80;;;;;;5032975;28;20179;-77
2022/06/30 05:19:32;;;;;;;14.77;14.07;;;28.80;10.90;;;;;;5033535;28;20642;-77
2022/06/30 05:21:59;;;;;;;16.07;15.07;;;26.70;11.90;;;;;;5036462;28;20550;-77
2022/06/30 05:27:09;;;;;;;15.90;15.10;;;26.50;13.10;;;;;;5037240;28;20924;-79
2022/06/30 05:29:34;;;;;;;16.40;15.50;;;28.00;10.70;;;;;;5033352;28;20413;-77
2022/06/30 05:32:00;;;;;;;17.47;16.57;;;29.20;8.60;;;;;;5033167;28;20202;-76
2022/06/30 05:34:25;;;;;;;15.87;15.00;;;29.40;6.80;;;;;;5033018;28;20215;-76
2022/06/30 05:36:51;;;;;;;17.93;16.77;;;30.10;8.30;;;;;;5032543;28;20183;-76
2022/06/30 05:39:17;;;;;;;17.43;16.53;;;31.20;5.80;;;;;;5032806;28;20179;-73
2022/06/30 05:41:42;;;;;;;16.90;16.20;;;32.10;5.40;;;;;;5032443;28;20195;-73
2022/06/30 05:44:08;;;;;;;20.30;19.17;;;33.00;4.20;;;;;;5032722;28;20422;-73
2022/06/30 05:46:34;;;;;;;17.90;17.00;;;33.50;2.10;;;;;;5032483;28;20187;-72
2022/06/30 05:49:00;;;;;;;17.60;16.70;;;32.80;2.60;;;;;;5032595;28;20203;-73
2022/06/30 05:51:25;;;;;;;18.90;17.97;;;33.00;2.60;;;;;;5026711;28;20223;-73
2022/06/30 05:53:51;;;;;;;17.80;17.00;;;33.80;2.50;;;;;;5032315;28;20743;-75
2022/06/30 05:56:16;;;;;;;17.17;16.00;;;34.40;1.40;;;;;;5031873;28;20175;-73
2022/06/30 05:58:42;;;;;;;16.40;15.70;;;34.70;1.00;;;;;;5015204;28;20234;-73
2022/06/30 06:01:07;;;;;;;17.37;16.37;;;35.30;1.00;;;;;;5011271;28;20226;-73
2022/06/30 06:03:33;;;;;;;17.63;16.83;;;36.00;1.00;;;;;;5010588;28;20552;-73
2022/06/30 06:05:58;;;;;;;17.47;16.63;;;36.40;1.00;;;;;;5010374;28;20556;-73
2022/06/30 06:08:24;;;;;;;17.90;16.90;;;35.60;1.00;;;;;;5010512;28;20180;-74
2022/06/30 06:10:49;;;;;;;17.60;16.80;;;36.40;1.00;;;;;;5010325;28;20219;-74
2022/06/30 06:13:15;;;;;;;18.97;17.87;;;35.60;1.00;;;;;;5010138;28;20208;-74
2022/06/30 06:15:41;;;;;;;16.70;15.90;;;36.30;1.00;;;;;;5010653;28;20176;-74
2022/06/30 06:18:06;;;;;;;17.47;16.67;;;36.60;1.00;;;;;;5010904;28;20410;-74
2022/06/30 06:20:32;;;;;;;17.23;16.30;;;36.90;1.00;;;;;;5012149;28;20554;-74
2022/06/30 06:22:58;;;;;;;18.63;17.63;;;36.70;1.00;;;;;;5012089;28;20184;-74
2022/06/30 06:25:24;;;;;;;18.23;17.30;;;36.60;1.00;;;;;;5012037;28;20255;-74
2022/06/30 06:30:34;;;;;;;17.23;16.43;;;37.40;1.00;;;;;;5032783;28;20444;-74
2022/06/30 06:32:59;;;;;;;18.53;17.43;;;37.60;1.00;;;;;;5034171;28;20417;-75
2022/06/30 06:35:25;;;;;;;17.77;16.87;;;37.90;1.00;;;;;;5033634;28;20538;-74
2022/06/30 06:37:51;;;;;;;17.70;16.90;;;38.10;1.00;;;;;;5039278;28;20171;-74
2022/06/30 06:40:16;;;;;;;17.67;16.87;;;37.90;1.00;;;;;;5038867;28;20179;-73
2022/06/30 06:42:42;;;;;;;17.30;16.40;;;37.90;1.00;;;;;;5038214;28;20197;-74
2022/06/30 06:45:08;;;;;;;16.13;15.47;;;37.70;1.00;;;;;;5038464;28;20258;-73
2022/06/30 06:47:33;;;;;;;17.90;16.80;;;37.70;1.00;;;;;;5037142;28;20190;-74
2022/06/30 06:49:59;;;;;;;16.70;15.97;;;37.80;1.00;;;;;;5038051;28;20429;-75
2022/06/30 06:52:26;;;;;;;17.17;16.37;;;37.80;1.00;;;;;;5038508;28;20226;-74
2022/06/30 06:54:52;;;;;;;17.27;16.27;;;37.60;1.00;;;;;;5038494;28;20206;-73
2022/06/30 06:57:17;;;;;;;17.03;16.33;;;36.90;1.00;;;;;;5038788;28;20425;-74
2022/06/30 06:59:43;;;;;;;17.20;16.50;;;36.60;1.00;;;;;;5038171;28;20178;-74
2022/06/30 07:02:09;;;;;;;17.17;16.03;;;35.90;1.00;;;;;;5038279;28;20211;-74
2022/06/30 07:04:35;;;;;;;18.00;16.67;;;35.00;1.00;;;;;;5037990;28;20175;-76
2022/06/30 07:07:01;;;;;;;17.93;16.93;;;34.50;1.00;;;;;;5038340;28;20175;-72
2022/06/30 07:09:26;;;;;;;17.63;16.80;;;33.20;1.00;;;;;;5036723;28;20429;-73
2022/06/30 07:11:52;;;;;;;17.80;16.87;;;32.60;1.00;;;;;;5038343;28;20460;-71
2022/06/30 07:14:17;;;;;;;17.43;16.70;;;31.60;2.60;;;;;;5038683;28;20286;-71
2022/06/30 07:16:43;;;;;;;17.57;16.77;;;32.20;1.70;;;;;;5038742;28;20545;-71
2022/06/30 07:19:09;;;;;;;17.07;16.37;;;32.90;1.00;;;;;;5037964;28;20175;-72
2022/06/30 07:21:34;;;;;;;17.57;16.77;;;33.20;1.00;;;;;;5038336;28;20202;-72
2022/06/30 07:24:00;;;;;;;18.37;17.13;;;33.40;1.00;;;;;;5038293;28;20211;-72
2022/06/30 07:26:25;;;;;;;16.83;15.93;;;34.40;1.00;;;;;;5038263;28;20405;-72
2022/06/30 07:28:51;;;;;;;17.70;16.87;;;35.30;1.00;;;;;;5038063;28;20186;-72
2022/06/30 07:31:16;;;;;;;17.17;16.23;;;36.20;1.00;;;;;;5038803;28;20203;-71
2022/06/30 07:33:42;;;;;;;17.70;16.73;;;36.70;1.00;;;;;;5037967;28;20238;-71
2022/06/30 07:36:09;;;;;;;17.60;16.80;;;37.30;1.00;;;;;;5038286;28;20189;-72
2022/06/30 07:38:34;;;;;;;18.53;17.37;;;36.50;1.00;;;;;;5036253;28;20975;-72
2022/06/30 07:41:01;;;;;;;15.47;14.87;;;37.50;1.00;;;;;;5036582;28;20450;-70
2022/06/30 07:43:27;;;;;;;17.90;16.73;;;37.80;1.00;;;;;;5035020;28;20571;-72
2022/06/30 07:45:52;;;;;;;17.33;16.43;;;36.90;1.00;;;;;;5034460;28;20517;-72
2022/06/30 07:48:19;;;;;;;18.77;17.70;;;36.40;1.00;;;;;;5034472;28;20493;-71
2022/06/30 07:50:45;;;;;;;17.77;16.90;;;35.90;1.00;;;;;;5033602;28;20186;-70
2022/06/30 07:53:11;;;;;;;19.30;17.80;;;34.90;1.00;;;;;;5034490;28;20414;-71
2022/06/30 07:55:37;;;;;;;16.60;15.70;;;36.10;1.00;;;;;;5034811;28;20803;-70
2022/06/30 07:58:02;;;;;;;16.43;15.73;;;33.60;1.00;;;;;;5035149;28;20416;-71
2022/06/30 08:00:28;;;;;;;16.90;16.10;;;34.60;1.00;;;;;;5033203;28;20704;-71
2022/06/30 08:02:54;;;;;;;17.80;17.10;;;36.00;1.00;;;;;;5034309;28;20306;-71
2022/06/30 08:05:19;;;;;;;18.07;17.00;;;36.60;1.00;;;;;;5033294;28;20203;-71
2022/06/30 08:07:45;;;;;;;17.10;16.30;;;34.80;1.00;;;;;;5034355;28;20592;-71
2022/06/30 08:10:11;;;;;;;17.40;16.30;;;35.00;1.00;;;;;;5034338;28;20556;-71
2022/06/30 08:12:37;;;;;;;18.40;17.30;;;35.80;1.00;;;;;;5034358;28;20206;-71
2022/06/30 08:15:04;;;;;;;18.43;17.27;;;35.50;1.00;;;;;;5033988;28;20461;-70
2022/06/30 08:17:31;;;;;;;18.17;17.37;;;34.00;1.00;;;;;;5034104;28;20764;-71
2022/06/30 08:19:57;;;;;;;16.53;15.83;;;33.40;1.00;;;;;;5033746;28;20413;-71
2022/06/30 08:22:24;;;;;;;18.20;17.30;;;32.70;1.00;;;;;;5034281;28;20473;-70
2022/06/30 08:24:50;;;;;;;17.13;16.33;;;32.30;2.20;;;;;;5034003;28;20963;-71
2022/06/30 08:27:16;;;;;;;17.50;16.50;;;32.30;1.80;;;;;;5033850;28;20448;-71
2022/06/30 08:29:42;;;;;;;17.67;16.77;;;33.10;1.90;;;;;;5032293;28;20453;-71
2022/06/30 08:32:07;;;;;;;16.97;16.07;;;32.30;3.00;;;;;;5034226;28;20769;-71
2022/06/30 08:34:33;;;;;;;16.97;15.87;;;31.80;4.30;;;;;;5032350;28;20211;-71
2022/06/30 08:36:59;;;;;;;17.43;16.53;;;32.60;3.40;;;;;;5034082;28;20179;-71
2022/06/30 08:42:12;;;;;;;16.70;15.83;;;32.60;3.40;;;;;;5033851;28;20720;-70
2022/06/30 08:44:41;;;;;;;15.67;14.87;;;32.60;2.40;;;;;;5034452;28;20464;-70
2022/06/30 08:47:08;;;;;;;16.80;16.07;;;31.50;4.40;;;;;;5033738;28;20425;-72
2022/06/30 08:49:34;;;;;;;16.27;15.57;;;32.10;3.10;;;;;;5033309;28;20417;-71
2022/06/30 08:52:01;;;;;;;16.83;16.10;;;32.50;2.80;;;;;;5033557;28;20487;-71
2022/06/30 08:54:29;;;;;;;16.47;15.70;;;31.90;3.20;;;;;;5033368;28;20462;-71
2022/06/30 08:56:59;;;;;;;17.17;16.33;;;31.90;2.50;;;;;;5014498;28;20492;-71
2022/06/30 08:59:25;;;;;;;16.37;15.47;;;32.10;2.60;;;;;;5032673;28;20422;-70
2022/06/30 09:01:54;;;;;;;15.33;14.63;;;31.90;3.10;;;;;;5022975;28;20461;-71
2022/06/30 09:04:20;;;;;;;15.90;15.07;;;31.00;3.50;;;;;;5027208;28;20608;-72
2022/06/30 09:06:46;;;;;;;15.97;15.17;;;30.80;4.70;;;;;;5031852;28;20826;-71
2022/06/30 09:09:11;;;;;;;15.50;14.77;;;30.60;4.60;;;;;;5032346;28;20414;-71
2022/06/30 09:11:48;;;;;;;14.10;13.50;;;29.80;5.20;;;;;;5032830;28;20195;-71
2022/06/30 09:14:41;;;;;;;16.00;15.10;;;29.10;6.30;;;;;;5032407;28;20201;-71
2022/06/30 09:17:18;;;;;;;14.33;13.73;;;29.00;6.80;;;;;;5032422;28;20509;-71
2022/06/30 09:19:55;;;;;;;13.83;13.13;;;28.90;6.90;;;;;;5032414;28;20832;-70
2022/06/30 09:22:22;;;;;;;15.50;14.27;;;28.60;8.00;;;;;;5033089;28;20434;-70
2022/06/30 09:24:55;;;;;;;15.20;14.50;;;28.40;7.20;;;;;;5034017;28;20940;-72
2022/06/30 09:27:21;;;;;;;16.07;15.07;;;28.60;6.70;;;;;;5033783;28;20412;-71
2022/06/30 09:30:04;;;;;;;15.03;14.27;;;28.50;8.30;;;;;;5032934;28;20460;-71
2022/06/30 09:32:31;;;;;;;15.87;14.97;;;28.40;8.50;;;;;;5033218;28;20437;-72
2022/06/30 09:35:09;;;;;;;13.83;13.07;;;27.90;8.50;;;;;;5032553;28;20453;-71
2022/06/30 09:37:35;;;;;;;14.30;13.50;;;27.90;9.00;;;;;;5033021;28;20410;-71
2022/06/30 09:40:00;;;;;;;14.23;13.53;;;27.70;9.40;;;;;;5031115;28;20426;-71
2022/06/30 09:42:40;;;;;;;13.97;13.37;;;27.80;9.30;;;;;;5032843;28;20452;-71
2022/06/30 09:45:08;;;;;;;14.83;13.93;;;27.60;9.70;;;;;;5032728;28;20179;-72
2022/06/30 09:47:35;;;;;;;15.50;14.60;;;27.60;10.00;;;;;;5015388;28;20425;-70
2022/06/30 09:50:03;;;;;;;14.77;13.97;;;27.80;10.00;;;;;;5032232;28;20421;-71
2022/06/30 09:52:29;;;;;;;14.73;13.37;;;27.60;10.20;;;;;;5032670;28;20441;-72
2022/06/30 09:55:06;;;;;;;14.53;13.53;;;27.80;10.30;;;;;;5032211;28;20465;-72
2022/06/30 09:57:52;;;;;;;14.67;13.97;;;27.80;9.70;;;;;;5032941;28;20187;-71
2022/06/30 10:00:18;;;;;;;13.80;13.00;;;27.80;8.80;;;;;;5031716;28;20418;-72
2022/06/30 10:02:47;;;;;;;15.80;14.30;;;28.00;9.30;;;;;;5087888;22;20570;-70
2022/06/30 10:05:16;;;;;;;14.13;13.43;;;28.00;9.20;;;;;;5071411;28;20440;-71
2022/06/30 10:07:42;;;;;;;14.10;13.40;;;27.90;8.60;;;;;;5072288;28;20810;-71
2022/06/30 10:10:10;;;;;;;14.83;14.00;;;27.60;9.70;;;;;;5071746;28;20926;-71
2022/06/30 10:12:37;;;;;;;14.70;13.67;;;27.30;9.80;;;;;;5070543;28;20486;-71
2022/06/30 10:15:04;;;;;;;13.77;12.77;;;27.40;10.40;;;;;;5072245;28;20462;-70
2022/06/30 10:17:52;;;;;;;14.10;13.40;;;27.40;10.30;;;;;;5071876;28;20412;-71
2022/06/30 10:20:18;;;;;;;13.73;13.13;;;27.60;8.50;;;;;;5071787;28;20461;-71
2022/06/30 10:22:44;;;;;;;14.63;13.83;;;27.60;9.20;;;;;;5071756;28;20436;-72
2022/06/30 10:25:10;;;;;;;13.83;13.17;;;27.50;7.70;;;;;;5070779;28;20960;-70
2022/06/30 10:27:35;;;;;;;14.70;13.50;;;27.50;6.90;;;;;;5070615;28;20174;-72
2022/06/30 10:30:06;;;;;;;15.73;14.83;;;27.70;8.70;;;;;;5062820;28;20183;-69
2022/06/30 10:32:51;;;;;;;14.30;13.50;;;27.80;7.80;;;;;;5060529;28;20194;-70
2022/06/30 10:35:44;;;;;;;13.10;12.40;;;28.00;7.40;;;;;;5070927;28;20485;-71
2022/06/30 10:38:10;;;;;;;15.33;14.37;;;28.00;7.40;;;;;;5051704;28;20401;-68
2022/06/30 10:40:56;;;;;;;14.80;13.90;;;28.00;5.70;;;;;;5052238;28;20832;-69
2022/06/30 10:43:22;;;;;;;15.33;14.43;;;28.00;4.30;;;;;;5051576;28;20171;-70
2022/06/30 10:46:01;;;;;;;14.40;13.60;;;27.90;4.70;;;;;;5057663;28;20416;-69
2022/06/30 10:48:46;;;;;;;14.70;14.00;;;28.00;6.40;;;;;;5062316;28;20186;-70
2022/06/30 10:51:15;;;;;;;15.27;14.57;;;27.90;7.30;;;;;;5051559;28;20420;-69
2022/06/30 10:53:40;;;;;;;14.30;13.60;;;28.00;6.10;;;;;;5051437;28;20448;-70
2022/06/30 10:56:06;;;;;;;14.40;13.50;;;28.00;3.90;;;;;;5051531;28;20421;-69
2022/06/30 10:58:32;;;;;;;14.33;13.73;;;28.00;5.60;;;;;;5051088;28;20172;-69
2022/06/30 11:01:03;;;;;;;14.83;14.23;;;28.00;5.70;;;;;;5062097;28;20261;-69
2022/06/30 11:03:34;;;;;;;14.03;13.33;;;28.10;4.90;;;;;;5071545;28;20915;-69
2022/06/30 11:06:07;;;;;;;15.20;14.17;;;28.00;5.70;;;;;;5071229;28;20424;-69
2022/06/30 11:08:39;;;;;;;13.83;13.30;;;28.00;6.10;;;;;;5071286;28;20444;-70
2022/06/30 11:11:28;;;;;;;14.53;13.83;;;28.10;5.20;;;;;;5071520;28;20515;-70
2022/06/30 11:14:02;;;;;;;14.43;13.80;;;28.20;6.80;;;;;;5066252;28;20470;-70
2022/06/30 11:16:33;;;;;;;14.50;13.67;;;28.10;7.20;;;;;;5055835;28;20424;-68
2022/06/30 11:19:00;;;;;;;14.10;13.30;;;28.20;7.30;;;;;;5055050;28;20409;-70
2022/06/30 11:21:30;;;;;;;14.40;13.70;;;28.30;6.80;;;;;;5055152;28;20429;-69
2022/06/30 11:24:00;;;;;;;14.73;13.93;;;28.30;6.90;;;;;;5055283;28;20686;-70
2022/06/30 11:29:14;;;;;;;15.40;14.17;;;28.40;5.60;;;;;;5074054;28;20521;-68
2022/06/30 11:31:41;;;;;;;14.90;14.20;;;28.70;5.20;;;;;;5063508;28;20445;-67
2022/06/30 11:34:10;;;;;;;14.93;14.23;;;28.70;4.60;;;;;;5065289;28;20459;-68
2022/06/30 11:36:37;;;;;;;17.27;16.27;;;28.80;4.70;;;;;;5075298;28;20409;-69
2022/06/30 11:39:21;;;;;;;16.13;15.43;;;29.00;3.80;;;;;;5057162;28;20439;-69
2022/06/30 11:41:58;;;;;;;16.63;15.93;;;29.20;1.00;;;;;;5054898;28;20443;-67
2022/06/30 11:44:24;;;;;;;16.03;15.27;;;29.30;1.00;;;;;;5055108;28;20480;-68
2022/06/30 11:46:53;;;;;;;16.03;15.33;;;29.40;1.40;;;;;;5054660;28;20419;-69
2022/06/30 11:49:20;;;;;;;17.47;16.63;;;29.50;1.00;;;;;;5055990;28;20432;-68
2022/06/30 11:51:46;;;;;;;16.60;15.90;;;29.60;1.00;;;;;;5074649;28;20449;-68
2022/06/30 11:54:13;;;;;;;17.33;16.43;;;29.70;1.00;;;;;;5073298;28;20977;-70
2022/06/30 11:56:44;;;;;;;16.30;15.60;;;29.60;1.00;;;;;;5074626;28;20465;-68
2022/06/30 11:59:09;;;;;;;16.80;16.00;;;29.70;1.00;;;;;;5074724;28;20500;-68
2022/06/30 12:01:35;;;;;;;17.53;16.43;;;29.70;1.00;;;;;;5072195;28;20630;-69
2022/06/30 12:04:17;;;;;;;17.17;16.20;;;29.70;1.00;;;;;;5063540;28;20186;-68
2022/06/30 12:06:44;;;;;;;15.80;15.10;;;29.60;1.00;;;;;;5073294;28;20703;-69
2022/06/30 12:09:10;;;;;;;16.00;15.27;;;29.80;1.00;;;;;;5055748;28;20795;-69
2022/06/30 12:11:37;;;;;;;16.23;15.53;;;30.00;1.00;;;;;;5054132;28;20807;-68
2022/06/30 12:14:03;;;;;;;16.60;15.80;;;30.30;1.00;;;;;;5054174;28;20987;-69
2022/06/30 12:16:28;;;;;;;16.20;15.40;;;30.50;1.00;;;;;;5053879;28;20417;-69
2022/06/30 12:18:54;;;;;;;15.97;15.27;;;30.60;1.00;;;;;;5059586;28;20483;-67
2022/06/30 12:21:20;;;;;;;16.67;15.97;;;30.80;1.00;;;;;;5054282;28;20216;-70
2022/06/30 12:23:48;;;;;;;16.40;15.70;;;31.10;1.00;;;;;;5055023;28;20281;-68
2022/06/30 12:26:15;;;;;;;16.40;15.67;;;31.20;1.00;;;;;;5056698;28;20528;-71
2022/06/30 12:28:52;;;;;;;16.80;16.07;;;31.40;1.00;;;;;;5054870;28;20413;-72
2022/06/30 12:31:28;;;;;;;17.03;16.13;;;31.30;1.00;;;;;;5054041;28;20432;-72
2022/06/30 12:33:56;;;;;;;17.10;16.17;;;31.50;1.00;;;;;;5053777;28;20464;-73
2022/06/30 12:36:30;;;;;;;16.60;15.87;;;31.70;1.00;;;;;;5053776;28;20422;-71
2022/06/30 12:38:56;;;;;;;16.30;15.60;;;31.90;1.00;;;;;;5053748;28;20913;-71
2022/06/30 12:41:22;;;;;;;17.13;16.27;;;32.10;1.00;;;;;;5053973;28;20435;-73
2022/06/30 12:43:50;;;;;;;40.13;17.60;;;32.20;1.00;;;;;;5052771;28;20182;-71
2022/06/30 12:46:16;;;;;;;19.03;17.40;;;32.50;1.00;;;;;;5061071;28;20466;-71
2022/06/30 12:48:42;;;;;;;17.10;16.20;;;32.70;1.00;;;;;;5073318;28;20450;-74
2022/06/30 12:51:27;;;;;;;16.30;15.60;;;32.50;1.00;;;;;;5071836;28;20851;-74
2022/06/30 12:54:00;;;;;;;18.13;17.13;;;32.60;1.00;;;;;;5073399;28;20601;-71
2022/06/30 12:56:27;;;;;;;18.13;17.33;;;32.80;1.00;;;;;;5065004;28;20426;-71
2022/06/30 12:59:03;;;;;;;16.77;15.87;;;32.80;1.00;;;;;;5053101;28;20475;-68
2022/06/30 13:01:31;;;;;;;15.50;14.90;;;32.60;1.00;;;;;;5052021;28;20472;-69